Time;durP1;ratioP1;P1;durP2;ratioP2;P2;SDS_P1;SDS_P2;PMS_P1;PMS_P2;Temp;Humidity;BMP_temperature;BMP_pressure;BME280_temperature;BME280_humidity;BME280_pressure;Samples;Min_cycle;Max_cycle;Signal;HPM_P1;HPM_P2
2022/01/09 00:00:37;;;;;;;24.92;8.50;;;29.20;56.70;;;;;;4952605;28;20033;-74
2022/01/09 00:03:22;;;;;;;11.95;6.53;;;29.20;56.70;;;;;;4968546;28;20031;-75
2022/01/09 00:05:48;;;;;;;14.70;6.68;;;29.20;56.70;;;;;;4972465;28;20102;-74
2022/01/09 00:08:14;;;;;;;18.33;7.00;;;29.10;56.60;;;;;;4967713;28;20041;-74
2022/01/09 00:10:46;;;;;;;16.25;6.53;;;29.10;56.60;;;;;;4967371;28;20015;-76
2022/01/09 00:13:14;;;;;;;18.55;7.18;;;29.00;56.60;;;;;;4971211;28;20434;-76
2022/01/09 00:15:40;;;;;;;19.85;8.40;;;29.10;56.70;;;;;;4969602;28;20033;-75
2022/01/09 00:18:07;;;;;;;23.83;7.55;;;29.00;56.70;;;;;;4971048;28;20103;-74
2022/01/09 00:20:33;;;;;;;24.02;7.13;;;29.00;56.70;;;;;;4963028;28;20554;-74
2022/01/09 00:23:00;;;;;;;35.03;8.25;;;29.00;56.80;;;;;;4971326;28;20549;-75
2022/01/09 00:25:35;;;;;;;28.42;9.88;;;29.00;56.90;;;;;;4964320;28;20046;-74
2022/01/09 00:28:02;;;;;;;20.23;6.78;;;28.90;56.90;;;;;;4965458;28;20256;-74
2022/01/09 00:30:33;;;;;;;27.15;8.90;;;28.90;57.00;;;;;;4962757;28;20090;-74
2022/01/09 00:33:00;;;;;;;16.25;8.35;;;28.90;57.00;;;;;;4968029;28;20038;-74
2022/01/09 00:35:27;;;;;;;17.35;7.75;;;28.90;57.00;;;;;;4971292;28;20023;-75
2022/01/09 00:37:53;;;;;;;27.50;9.48;;;28.90;57.00;;;;;;4968206;28;20015;-74
2022/01/09 00:40:20;;;;;;;25.33;8.90;;;28.90;57.10;;;;;;4967641;28;20030;-74
2022/01/09 00:42:46;;;;;;;17.95;8.30;;;28.80;57.00;;;;;;4968521;28;20076;-75
2022/01/09 00:45:14;;;;;;;27.00;9.95;;;28.80;57.10;;;;;;4952896;28;20023;-74
2022/01/09 00:47:41;;;;;;;18.27;7.85;;;28.80;57.30;;;;;;4967167;28;20015;-77
2022/01/09 00:50:09;;;;;;;17.73;7.43;;;28.70;57.40;;;;;;4947230;28;20023;-76
2022/01/09 00:52:36;;;;;;;20.77;7.82;;;28.70;57.60;;;;;;4966514;28;20019;-75
2022/01/09 00:55:03;;;;;;;24.80;7.75;;;28.70;57.70;;;;;;4965610;28;20030;-75
2022/01/09 00:57:30;;;;;;;22.38;7.57;;;28.70;57.90;;;;;;4969647;28;20023;-78
2022/01/09 00:59:57;;;;;;;19.98;8.52;;;28.60;57.90;;;;;;4969129;28;20031;-74
2022/01/09 01:02:23;;;;;;;21.50;9.63;;;28.70;58.00;;;;;;4969733;28;20077;-75
2022/01/09 01:04:51;;;;;;;18.08;7.78;;;28.60;58.00;;;;;;4971021;28;20037;-76
2022/01/09 01:07:23;;;;;;;23.00;8.25;;;28.60;58.00;;;;;;4966559;28;20027;-74
2022/01/09 01:09:49;;;;;;;17.67;7.55;;;28.60;58.00;;;;;;4966592;28;20425;-74
2022/01/09 01:12:16;;;;;;;16.83;7.88;;;28.60;58.00;;;;;;4935409;28;20022;-74
2022/01/09 01:14:42;;;;;;;21.60;7.63;;;28.60;58.10;;;;;;4966748;28;20386;-76
2022/01/09 01:17:17;;;;;;;16.65;5.90;;;28.60;58.20;;;;;;4959860;28;20378;-75
2022/01/09 01:19:44;;;;;;;18.20;7.22;;;28.60;58.20;;;;;;4953461;28;20137;-75
2022/01/09 01:22:10;;;;;;;24.73;7.57;;;28.50;58.20;;;;;;4969908;28;20490;-75
2022/01/09 01:24:38;;;;;;;19.58;6.75;;;28.50;58.20;;;;;;4969882;28;20046;-75
2022/01/09 01:27:05;;;;;;;23.25;6.85;;;28.50;58.20;;;;;;4971586;28;20027;-74
2022/01/09 01:29:32;;;;;;;21.65;6.13;;;28.50;58.20;;;;;;4962829;28;20129;-73
2022/01/09 01:31:59;;;;;;;28.05;7.72;;;28.50;58.20;;;;;;4969513;28;20065;-72
2022/01/09 01:34:25;;;;;;;29.42;8.73;;;28.50;58.80;;;;;;4952775;28;20035;-73
2022/01/09 01:36:52;;;;;;;24.90;7.63;;;28.50;58.30;;;;;;4970402;28;20015;-75
2022/01/09 01:39:20;;;;;;;19.30;6.70;;;28.50;58.40;;;;;;4962593;28;20483;-75
2022/01/09 01:41:46;;;;;;;17.85;6.35;;;28.50;58.40;;;;;;4967259;28;20529;-74
2022/01/09 01:44:13;;;;;;;25.08;6.32;;;28.50;58.40;;;;;;4972877;28;20416;-74
2022/01/09 01:46:40;;;;;;;18.88;6.65;;;28.40;58.40;;;;;;4973644;28;20026;-76
2022/01/09 01:49:10;;;;;;;18.63;6.75;;;28.40;58.40;;;;;;4973930;28;20513;-75
2022/01/09 01:51:41;;;;;;;20.23;6.22;;;28.40;58.40;;;;;;4973037;28;20037;-75
2022/01/09 01:54:09;;;;;;;15.77;5.78;;;28.40;58.40;;;;;;4970038;28;20033;-74
2022/01/09 01:56:36;;;;;;;17.98;5.88;;;28.40;58.40;;;;;;4949371;28;20023;-74
2022/01/09 01:59:03;;;;;;;14.18;6.07;;;28.40;58.40;;;;;;4967343;28;20081;-75
2022/01/09 02:01:30;;;;;;;16.05;4.93;;;28.30;58.40;;;;;;4970972;28;20483;-75
2022/01/09 02:03:56;;;;;;;13.95;5.53;;;28.30;58.40;;;;;;4972340;28;20030;-76
2022/01/09 02:06:25;;;;;;;25.48;8.57;;;28.30;58.40;;;;;;4971606;28;20023;-74
2022/01/09 02:09:00;;;;;;;32.50;7.43;;;28.30;58.40;;;;;;4971621;28;20030;-74
2022/01/09 02:11:27;;;;;;;33.28;6.55;;;28.30;58.50;;;;;;4955722;28;20486;-72
2022/01/09 02:13:58;;;;;;;20.40;6.07;;;28.30;58.50;;;;;;4973000;28;20029;-77
2022/01/09 02:16:26;;;;;;;22.33;7.03;;;28.20;58.40;;;;;;4950276;28;20058;-74
2022/01/09 02:18:52;;;;;;;13.00;5.30;;;28.20;58.40;;;;;;4954003;28;20034;-76
2022/01/09 02:21:19;;;;;;;36.42;8.70;;;28.20;58.30;;;;;;4968008;28;20371;-75
2022/01/09 02:23:47;;;;;;;44.90;9.75;;;28.20;58.30;;;;;;4969446;28;20055;-73
2022/01/09 02:26:19;;;;;;;64.93;10.23;;;28.20;58.20;;;;;;4972669;28;20073;-73
2022/01/09 02:28:47;;;;;;;51.75;10.88;;;28.20;58.30;;;;;;4971669;28;20077;-74
2022/01/09 02:31:15;;;;;;;38.35;8.25;;;28.10;58.40;;;;;;4973124;28;20037;-74
2022/01/09 02:33:42;;;;;;;48.58;11.80;;;28.20;58.50;;;;;;4964343;28;20019;-75
2022/01/09 02:36:09;;;;;;;36.47;8.45;;;28.10;58.40;;;;;;4969251;28;20045;-74
2022/01/09 02:38:36;;;;;;;27.10;7.75;;;28.10;58.40;;;;;;4970290;28;20027;-75
2022/01/09 02:41:02;;;;;;;21.90;6.55;;;28.10;59.00;;;;;;4971499;28;20029;-75
2022/01/09 02:43:29;;;;;;;13.73;4.60;;;28.10;58.50;;;;;;4965629;28;20027;-74
2022/01/09 02:48:35;;;;;;;7.75;2.58;;;28.10;59.20;;;;;;4971564;28;20027;-73
2022/01/09 02:51:08;;;;;;;7.60;2.92;;;28.10;58.80;;;;;;4965944;28;20041;-75
2022/01/09 02:53:36;;;;;;;6.85;3.58;;;28.10;58.80;;;;;;4951856;28;20023;-74
2022/01/09 02:56:04;;;;;;;5.07;2.88;;;28.00;58.80;;;;;;4971550;28;20031;-75
2022/01/09 02:58:33;;;;;;;7.70;1.70;;;28.00;58.90;;;;;;4970616;28;20059;-75
2022/01/09 03:01:00;;;;;;;5.40;2.00;;;28.00;58.90;;;;;;4955026;28;20030;-75
2022/01/09 03:03:27;;;;;;;6.88;1.88;;;28.00;58.90;;;;;;4969129;28;20030;-74
2022/01/09 03:05:53;;;;;;;7.03;2.22;;;28.00;58.90;;;;;;4973254;28;20394;-75
2022/01/09 03:08:20;;;;;;;8.20;2.67;;;28.00;58.90;;;;;;4972135;28;20375;-74
2022/01/09 03:10:46;;;;;;;6.18;2.50;;;28.00;59.00;;;;;;4971822;28;20029;-76
2022/01/09 03:13:13;;;;;;;9.35;2.50;;;28.00;59.00;;;;;;4967574;28;20022;-75
2022/01/09 03:15:40;;;;;;;7.78;2.08;;;28.00;59.00;;;;;;4964954;28;20030;-75
2022/01/09 03:18:06;;;;;;;7.38;2.58;;;28.00;59.10;;;;;;4970030;28;20027;-77
2022/01/09 03:20:33;;;;;;;7.78;2.50;;;27.90;58.90;;;;;;4967637;28;20034;-74
2022/01/09 03:23:08;;;;;;;22.50;4.03;;;27.90;59.00;;;;;;4970382;28;20039;-73
2022/01/09 03:25:35;;;;;;;29.75;3.50;;;27.90;59.10;;;;;;4952207;28;20031;-74
2022/01/09 03:28:02;;;;;;;29.20;3.72;;;27.90;59.20;;;;;;4969988;28;20034;-74
2022/01/09 03:30:29;;;;;;;34.85;5.15;;;27.90;59.20;;;;;;4970895;28;20099;-74
2022/01/09 03:32:57;;;;;;;22.33;4.72;;;27.90;59.10;;;;;;4969393;28;20035;-76
2022/01/09 03:35:26;;;;;;;25.70;3.25;;;27.90;59.00;;;;;;4967136;28;20544;-74
2022/01/09 03:37:53;;;;;;;17.42;3.80;;;27.80;58.90;;;;;;4967528;28;20026;-74
2022/01/09 03:40:22;;;;;;;9.90;3.22;;;27.80;58.90;;;;;;4948798;28;20034;-74
2022/01/09 03:42:51;;;;;;;8.55;2.50;;;27.80;59.10;;;;;;4954211;28;20037;-75
2022/01/09 03:45:19;;;;;;;11.50;3.15;;;27.80;59.10;;;;;;4970506;28;20110;-73
2022/01/09 03:47:45;;;;;;;11.48;3.22;;;27.80;59.10;;;;;;4971024;28;20058;-75
2022/01/09 03:50:13;;;;;;;22.73;3.92;;;27.80;59.10;;;;;;4971915;28;20054;-74
2022/01/09 03:52:40;;;;;;;21.73;3.45;;;27.80;59.20;;;;;;4966377;28;20470;-74
2022/01/09 03:55:10;;;;;;;23.17;4.22;;;27.70;59.10;;;;;;4971398;28;20110;-76
2022/01/09 03:57:36;;;;;;;17.00;3.53;;;27.70;59.30;;;;;;4970839;28;20027;-70
2022/01/09 04:00:08;;;;;;;24.85;3.65;;;27.70;59.50;;;;;;4967601;28;20035;-71
2022/01/09 04:02:35;;;;;;;11.52;2.08;;;27.70;61.00;;;;;;4966572;28;20042;-70
2022/01/09 04:05:02;;;;;;;7.40;2.20;;;27.50;61.20;;;;;;4971343;28;20026;-72
2022/01/09 04:07:28;;;;;;;18.02;4.10;;;27.30;61.80;;;;;;4971534;28;20019;-75
2022/01/09 04:09:55;;;;;;;21.10;2.65;;;27.10;62.00;;;;;;4969248;28;20019;-73
2022/01/09 04:12:32;;;;;;;22.92;4.63;;;27.10;61.90;;;;;;4970983;28;20498;-73
2022/01/09 04:15:04;;;;;;;32.53;3.85;;;27.10;62.00;;;;;;4970040;28;20035;-80
2022/01/09 04:18:12;;;;;;;40.58;11.75;;;27.20;62.20;;;;;;4968161;28;20505;-71
2022/01/09 04:20:31;;;;;;;44.97;22.52;;;27.20;62.10;;;;;;4956841;28;20482;-71
2022/01/09 04:22:58;;;;;;;54.08;17.42;;;27.30;62.00;;;;;;4968616;28;20554;-70
2022/01/09 04:25:25;;;;;;;18.63;10.32;;;27.30;62.00;;;;;;4967988;28;20440;-75
2022/01/09 04:27:53;;;;;;;13.57;5.95;;;27.30;61.80;;;;;;4967853;28;20027;-71
2022/01/09 04:30:20;;;;;;;10.50;4.70;;;27.30;61.70;;;;;;4967434;28;20126;-72
2022/01/09 04:32:46;;;;;;;23.63;5.72;;;27.30;61.40;;;;;;4968602;28;20110;-70
2022/01/09 04:35:13;;;;;;;18.40;3.25;;;27.30;61.40;;;;;;4967969;28;20050;-73
2022/01/09 04:37:40;;;;;;;12.02;2.42;;;27.30;61.50;;;;;;4970690;28;20018;-72
2022/01/09 04:40:13;;;;;;;20.55;2.15;;;27.30;61.60;;;;;;4966407;28;20023;-74
2022/01/09 04:42:44;;;;;;;28.98;3.13;;;27.30;61.70;;;;;;4963716;28;20046;-72
2022/01/09 04:45:12;;;;;;;33.20;4.50;;;27.30;62.00;;;;;;4968187;28;20022;-75
2022/01/09 04:47:47;;;;;;;38.63;4.05;;;27.30;62.40;;;;;;4967621;28;20057;-76
2022/01/09 04:50:23;;;;;;;22.77;2.60;;;27.30;62.30;;;;;;4965046;28;20107;-72
2022/01/09 04:52:53;;;;;;;10.18;1.65;;;27.30;62.30;;;;;;4967846;28;20054;-71
2022/01/09 04:55:20;;;;;;;8.05;1.55;;;27.30;62.20;;;;;;4951746;28;20027;-74
2022/01/09 04:57:46;;;;;;;9.85;2.78;;;27.30;62.10;;;;;;4950630;28;20490;-74
2022/01/09 05:00:13;;;;;;;13.40;2.03;;;27.30;61.90;;;;;;4970435;28;20418;-71
2022/01/09 05:02:44;;;;;;;46.17;4.28;;;27.30;61.90;;;;;;4952393;28;20062;-75
2022/01/09 05:05:11;;;;;;;42.08;3.40;;;27.30;62.20;;;;;;4970704;28;20034;-71
2022/01/09 05:07:39;;;;;;;17.48;3.10;;;27.30;62.30;;;;;;4964526;28;20027;-72
2022/01/09 05:10:07;;;;;;;11.40;2.00;;;27.30;62.30;;;;;;4961992;28;20023;-72
2022/01/09 05:12:34;;;;;;;131.95;93.80;;;27.30;62.30;;;;;;4964510;28;20038;-80
2022/01/09 05:15:01;;;;;;;113.05;79.82;;;27.30;62.70;;;;;;4964922;28;20427;-77
2022/01/09 05:17:27;;;;;;;78.40;48.55;;;27.20;62.70;;;;;;4968972;28;20023;-80
2022/01/09 05:19:57;;;;;;;62.00;31.95;;;27.20;62.70;;;;;;4970218;28;20015;-79
2022/01/09 05:22:25;;;;;;;49.40;23.10;;;27.20;62.90;;;;;;4970770;28;20034;-78
2022/01/09 05:25:02;;;;;;;44.28;21.50;;;27.30;63.10;;;;;;4969974;28;20023;-80
2022/01/09 05:27:29;;;;;;;39.15;17.92;;;27.30;63.10;;;;;;4969581;28;20034;-74
2022/01/09 05:29:56;;;;;;;41.47;14.02;;;27.30;63.10;;;;;;4968405;28;20025;-77
2022/01/09 05:32:22;;;;;;;38.83;10.10;;;27.30;63.00;;;;;;4966336;28;20022;-71
2022/01/09 05:34:49;;;;;;;39.88;7.13;;;27.30;62.80;;;;;;4957070;28;20425;-76
2022/01/09 05:37:15;;;;;;;24.90;5.97;;;27.30;62.70;;;;;;4973387;28;20490;-74
2022/01/09 05:39:42;;;;;;;27.40;4.57;;;27.30;62.70;;;;;;4970675;28;20518;-74
2022/01/09 05:42:11;;;;;;;21.45;3.03;;;27.30;62.80;;;;;;4967936;28;20035;-75
2022/01/09 05:44:37;;;;;;;11.65;2.95;;;27.40;62.80;;;;;;4969109;28;20059;-73
2022/01/09 05:47:04;;;;;;;5.85;2.20;;;27.40;62.70;;;;;;4973438;28;20030;-73
2022/01/09 05:49:31;;;;;;;6.88;1.45;;;27.40;62.60;;;;;;4967609;28;20031;-76
2022/01/09 05:51:57;;;;;;;30.65;3.70;;;27.40;62.60;;;;;;4969782;28;20077;-74
2022/01/09 05:54:24;;;;;;;19.25;3.50;;;27.50;62.80;;;;;;4963133;28;20018;-76
2022/01/09 05:56:51;;;;;;;13.10;2.10;;;27.50;62.80;;;;;;4967253;28;20038;-74
2022/01/09 05:59:19;;;;;;;12.82;2.92;;;27.60;62.80;;;;;;4965595;28;20025;-73
2022/01/09 06:01:49;;;;;;;19.80;3.30;;;27.60;62.70;;;;;;4962704;28;20031;-80
2022/01/09 06:04:15;;;;;;;19.83;3.40;;;27.70;62.60;;;;;;4965923;28;20042;-73
2022/01/09 06:06:42;;;;;;;12.68;2.10;;;27.70;62.60;;;;;;4963056;28;20113;-83
2022/01/09 06:09:11;;;;;;;9.70;2.17;;;27.70;62.40;;;;;;4962540;28;20027;-81
2022/01/09 06:11:38;;;;;;;4.13;1.58;;;27.80;62.40;;;;;;4967313;28;20545;-74
2022/01/09 06:14:07;;;;;;;19.67;6.82;;;27.80;62.20;;;;;;4953045;28;20396;-76
2022/01/09 06:16:34;;;;;;;23.55;6.20;;;27.80;61.70;;;;;;4965634;28;20055;-76
2022/01/09 06:19:00;;;;;;;147.85;20.70;;;27.70;62.10;;;;;;4968896;28;20089;-73
2022/01/09 06:21:27;;;;;;;112.00;15.80;;;27.80;62.30;;;;;;4953398;28;20044;-71
2022/01/09 06:23:54;;;;;;;75.97;14.65;;;27.80;62.90;;;;;;4960952;28;20027;-72
2022/01/09 06:26:21;;;;;;;48.00;7.15;;;27.90;62.10;;;;;;4952198;28;20023;-70
2022/01/09 06:28:47;;;;;;;163.48;17.60;;;27.90;61.90;;;;;;4968303;28;20446;-72
2022/01/09 06:31:14;;;;;;;113.10;12.32;;;27.90;62.00;;;;;;4971046;28;20076;-72
2022/01/09 06:33:41;;;;;;;69.18;11.77;;;27.80;62.30;;;;;;4951066;28;20042;-74
2022/01/09 06:36:13;;;;;;;53.15;9.20;;;27.80;62.40;;;;;;4950109;28;20023;-85
2022/01/09 06:38:40;;;;;;;26.05;7.28;;;27.80;62.20;;;;;;4958485;28;20046;-89
2022/01/09 06:41:06;;;;;;;18.90;4.03;;;27.80;62.00;;;;;;4963624;28;20086;-77
2022/01/09 06:43:33;;;;;;;16.75;3.65;;;27.90;61.80;;;;;;4960786;28;20031;-72
2022/01/09 06:45:59;;;;;;;11.05;3.40;;;27.90;61.70;;;;;;4970095;28;20148;-75
2022/01/09 06:48:26;;;;;;;16.77;2.40;;;28.00;61.50;;;;;;4976495;28;20042;-73
2022/01/09 06:50:52;;;;;;;4.70;1.50;;;28.10;61.40;;;;;;4973313;28;20015;-83
2022/01/09 06:53:19;;;;;;;44.20;4.45;;;28.10;61.20;;;;;;4973406;28;20105;-72
2022/01/09 06:55:46;;;;;;;56.00;4.93;;;28.10;61.30;;;;;;4972799;28;20371;-70
2022/01/09 06:58:14;;;;;;;29.67;3.30;;;28.10;61.40;;;;;;4967332;28;20023;-83
2022/01/09 07:00:40;;;;;;;16.08;3.03;;;28.10;61.50;;;;;;4972987;28;20498;-76
2022/01/09 07:03:07;;;;;;;21.55;3.25;;;28.10;61.40;;;;;;4971457;28;20027;-74
2022/01/09 07:05:33;;;;;;;31.60;5.60;;;28.10;61.10;;;;;;4965205;28;20035;-70
2022/01/09 07:08:00;;;;;;;23.02;4.40;;;28.00;60.80;;;;;;4970106;28;20019;-71
2022/01/09 07:10:28;;;;;;;58.80;5.90;;;28.00;60.70;;;;;;4972038;28;20498;-69
2022/01/09 07:12:54;;;;;;;25.40;3.05;;;28.00;60.60;;;;;;4972218;28;20030;-71
2022/01/09 07:15:21;;;;;;;65.03;7.93;;;28.00;60.60;;;;;;4967795;28;20034;-73
2022/01/09 07:17:47;;;;;;;55.38;7.43;;;28.00;60.60;;;;;;4964706;28;20023;-73
2022/01/09 07:20:19;;;;;;;23.35;3.53;;;28.00;60.70;;;;;;4961300;28;20019;-79
2022/01/09 07:22:45;;;;;;;27.88;4.43;;;28.00;60.60;;;;;;4936051;28;20043;-71
2022/01/09 07:25:12;;;;;;;30.75;2.55;;;28.00;60.70;;;;;;4950555;28;20019;-70
2022/01/09 07:27:38;;;;;;;20.52;2.47;;;28.00;61.10;;;;;;4953487;28;20062;-70
2022/01/09 07:30:05;;;;;;;17.63;2.15;;;28.00;61.40;;;;;;4947965;28;20023;-71
2022/01/09 07:32:36;;;;;;;10.70;2.22;;;28.00;61.10;;;;;;4950137;28;20027;-71
2022/01/09 07:35:04;;;;;;;10.65;2.35;;;28.00;60.80;;;;;;4950565;28;20562;-71
2022/01/09 07:37:31;;;;;;;10.13;1.80;;;28.10;60.70;;;;;;4949890;28;20055;-75
2022/01/09 07:40:00;;;;;;;6.05;2.80;;;28.10;60.50;;;;;;4953668;28;20023;-70
2022/01/09 07:42:27;;;;;;;3.83;1.20;;;28.10;60.30;;;;;;4948065;28;20115;-72
2022/01/09 07:44:53;;;;;;;2.72;1.10;;;28.10;60.20;;;;;;4951122;28;20416;-71
2022/01/09 07:47:20;;;;;;;1.77;0.85;;;28.10;60.00;;;;;;4946093;28;20031;-74
2022/01/09 07:49:46;;;;;;;7.05;1.75;;;28.10;60.00;;;;;;4951749;28;20361;-70
2022/01/09 07:52:13;;;;;;;20.40;2.80;;;28.20;60.00;;;;;;4946238;28;20016;-77
2022/01/09 07:54:39;;;;;;;10.20;1.73;;;28.20;60.00;;;;;;4947609;28;20032;-85
2022/01/09 07:57:06;;;;;;;17.77;1.85;;;28.20;60.10;;;;;;4948711;28;20043;-69
2022/01/09 07:59:34;;;;;;;31.48;3.45;;;28.20;60.40;;;;;;4947186;28;20046;-76
2022/01/09 08:02:01;;;;;;;56.72;6.70;;;28.20;60.40;;;;;;4951387;28;20042;-75
2022/01/09 08:04:27;;;;;;;22.38;3.95;;;28.10;60.60;;;;;;4948133;28;20031;-71
2022/01/09 08:06:53;;;;;;;24.73;3.60;;;28.10;60.60;;;;;;4944480;28;20038;-74
2022/01/09 08:09:21;;;;;;;8.63;1.40;;;28.10;60.60;;;;;;4949502;28;20032;-72
2022/01/09 08:11:49;;;;;;;9.32;1.10;;;28.20;60.50;;;;;;4951758;28;20023;-70
2022/01/09 08:14:15;;;;;;;5.03;1.00;;;28.20;60.30;;;;;;4951450;28;20028;-69
2022/01/09 08:16:42;;;;;;;2.03;0.75;;;28.20;60.20;;;;;;4949972;28;20489;-73
2022/01/09 08:19:08;;;;;;;2.00;0.95;;;28.30;60.10;;;;;;4950361;28;20055;-75
2022/01/09 08:21:35;;;;;;;2.08;0.88;;;28.30;60.00;;;;;;4947757;28;20047;-71
2022/01/09 08:24:01;;;;;;;3.75;1.10;;;28.30;60.30;;;;;;4971809;28;20457;-75
2022/01/09 08:26:28;;;;;;;2.50;1.17;;;28.40;59.80;;;;;;4971463;28;20015;-73
2022/01/09 08:28:54;;;;;;;3.20;1.55;;;28.40;59.80;;;;;;4971918;28;20468;-71
2022/01/09 08:31:22;;;;;;;6.13;1.70;;;28.40;59.70;;;;;;4967046;28;20029;-74
2022/01/09 08:33:48;;;;;;;3.70;2.30;;;28.40;59.70;;;;;;4966138;28;20019;-73
2022/01/09 08:36:15;;;;;;;26.15;6.43;;;28.40;59.80;;;;;;4970086;28;20021;-72
2022/01/09 08:38:42;;;;;;;36.08;11.70;;;28.40;59.90;;;;;;4967901;28;20106;-74
2022/01/09 08:41:09;;;;;;;35.75;4.97;;;28.40;59.80;;;;;;4965711;28;20572;-74
2022/01/09 08:43:39;;;;;;;19.30;2.88;;;28.50;59.60;;;;;;4969953;28;20058;-72
2022/01/09 08:46:07;;;;;;;14.70;1.83;;;28.50;59.70;;;;;;4971272;28;20417;-74
2022/01/09 08:48:33;;;;;;;22.95;5.22;;;28.50;59.60;;;;;;4968541;28;20041;-71
2022/01/09 08:51:01;;;;;;;48.03;27.38;;;28.50;59.50;;;;;;4965746;28;20022;-76
2022/01/09 08:53:27;;;;;;;25.63;12.23;;;28.50;59.90;;;;;;4972296;28;20382;-75
2022/01/09 08:55:54;;;;;;;18.45;6.75;;;28.50;60.00;;;;;;4973093;28;20102;-74
2022/01/09 08:58:20;;;;;;;20.08;4.60;;;28.50;60.00;;;;;;4975518;28;20058;-73
2022/01/09 09:00:47;;;;;;;6.93;1.60;;;28.60;60.00;;;;;;4967648;28;20569;-77
2022/01/09 09:03:13;;;;;;;10.32;3.10;;;28.60;59.90;;;;;;4973750;28;20023;-73
2022/01/09 09:05:39;;;;;;;16.73;1.85;;;28.60;59.90;;;;;;4970255;28;20038;-73
2022/01/09 09:08:06;;;;;;;11.02;1.55;;;28.70;60.10;;;;;;4971915;28;20102;-78
2022/01/09 09:10:32;;;;;;;3.97;0.93;;;28.70;60.20;;;;;;4975284;28;20074;-78
2022/01/09 09:12:59;;;;;;;2.30;0.65;;;28.70;60.00;;;;;;4969870;28;20054;-76
2022/01/09 09:15:27;;;;;;;2.13;0.80;;;28.70;60.00;;;;;;4975079;28;20057;-73
2022/01/09 09:17:55;;;;;;;0.80;0.80;;;28.70;60.10;;;;;;4966381;28;20023;-73
2022/01/09 09:20:22;;;;;;;0.80;0.80;;;28.80;60.00;;;;;;4969622;28;20074;-72
2022/01/09 09:22:50;;;;;;;5.63;1.63;;;28.90;60.00;;;;;;4953357;28;20051;-73
2022/01/09 09:25:17;;;;;;;11.35;2.45;;;28.90;60.20;;;;;;4968826;28;20035;-72
2022/01/09 09:27:45;;;;;;;7.38;1.95;;;28.90;60.20;;;;;;4969454;28;20024;-72
2022/01/09 09:30:14;;;;;;;2.13;1.10;;;29.00;60.30;;;;;;4956905;28;20038;-76
2022/01/09 09:32:41;;;;;;;6.15;1.30;;;29.00;60.10;;;;;;4974606;28;20030;-75
2022/01/09 09:35:09;;;;;;;2.75;1.10;;;29.00;59.80;;;;;;4973313;28;20031;-74
2022/01/09 09:37:35;;;;;;;2.67;0.80;;;29.10;59.80;;;;;;4974970;28;20030;-71
2022/01/09 09:40:02;;;;;;;15.43;8.38;;;29.10;60.50;;;;;;4969730;28;20433;-73
2022/01/09 09:42:29;;;;;;;186.05;135.05;;;29.10;59.90;;;;;;4967843;28;20093;-73
2022/01/09 09:45:00;;;;;;;518.17;404.52;;;29.10;60.20;;;;;;4969603;28;20023;-72
2022/01/09 09:47:28;;;;;;;70.03;56.25;;;29.00;60.20;;;;;;4970113;28;20026;-71
2022/01/09 09:49:54;;;;;;;69.47;48.38;;;28.70;60.90;;;;;;4974721;28;20027;-71
2022/01/09 09:52:21;;;;;;;69.05;38.78;;;28.60;61.90;;;;;;4967494;28;20034;-70
2022/01/09 09:54:52;;;;;;;54.25;41.63;;;28.50;62.30;;;;;;4967046;28;20600;-72
2022/01/09 09:57:20;;;;;;;61.10;49.03;;;28.50;62.40;;;;;;4971353;28;20564;-71
2022/01/09 09:59:47;;;;;;;39.97;35.88;;;28.50;62.30;;;;;;4971763;28;20061;-76
2022/01/09 10:02:18;;;;;;;27.77;24.85;;;28.60;62.00;;;;;;4979237;28;20042;-70
2022/01/09 10:04:59;;;;;;;23.40;18.58;;;28.60;61.70;;;;;;4963642;28;20078;-70
2022/01/09 10:07:27;;;;;;;15.43;12.18;;;28.70;61.60;;;;;;4974261;28;20069;-71
2022/01/09 10:09:58;;;;;;;19.83;13.50;;;28.70;61.60;;;;;;4972075;28;20152;-72
2022/01/09 10:12:28;;;;;;;28.33;18.67;;;28.80;61.70;;;;;;4956040;28;20505;-72
2022/01/09 10:15:00;;;;;;;25.15;11.68;;;28.80;61.70;;;;;;4969892;28;20058;-72
2022/01/09 10:17:28;;;;;;;24.92;9.75;;;28.90;61.70;;;;;;4971484;28;20491;-71
2022/01/09 10:19:58;;;;;;;22.85;20.50;;;28.90;61.40;;;;;;4972969;28;20510;-69
2022/01/09 10:22:34;;;;;;;17.98;16.05;;;29.00;61.10;;;;;;4968719;28;20073;-71
2022/01/09 10:25:25;;;;;;;8.15;6.60;;;29.00;60.90;;;;;;4973865;28;20073;-72
2022/01/09 10:28:04;;;;;;;9.48;7.03;;;29.00;60.70;;;;;;4968499;28;20030;-71
2022/01/09 10:30:34;;;;;;;15.40;12.77;;;29.10;60.70;;;;;;4970856;28;20015;-71
2022/01/09 10:33:04;;;;;;;25.58;11.07;;;29.10;60.60;;;;;;4973711;28;20018;-69
2022/01/09 10:35:31;;;;;;;35.13;15.65;;;29.20;60.70;;;;;;4965088;28;20027;-68
2022/01/09 10:38:13;;;;;;;24.90;11.45;;;29.30;61.00;;;;;;4971046;28;20038;-71
2022/01/09 10:40:42;;;;;;;8.35;6.22;;;29.30;61.10;;;;;;4964749;28;20032;-70
2022/01/09 10:43:21;;;;;;;5.80;5.15;;;29.30;60.70;;;;;;4970917;28;20031;-73
2022/01/09 10:45:56;;;;;;;22.13;6.97;;;29.40;60.60;;;;;;4973659;28;20054;-69
2022/01/09 10:48:25;;;;;;;18.55;5.43;;;29.40;60.20;;;;;;4972859;28;20102;-69
2022/01/09 10:50:52;;;;;;;3.53;2.90;;;29.40;60.40;;;;;;4950708;28;20027;-71
2022/01/09 10:53:26;;;;;;;6.03;2.85;;;29.40;60.40;;;;;;4966702;28;20050;-70
2022/01/09 10:56:13;;;;;;;7.30;6.50;;;29.30;60.30;;;;;;4967961;28;20034;-68
2022/01/09 10:58:52;;;;;;;7.05;6.45;;;29.20;60.30;;;;;;4970763;28;20462;-69
2022/01/09 11:01:29;;;;;;;3.75;3.40;;;29.20;60.60;;;;;;4968520;28;20118;-72
2022/01/09 11:04:14;;;;;;;3.05;1.80;;;29.20;60.30;;;;;;4963631;28;20379;-71
2022/01/09 11:06:40;;;;;;;1.55;1.00;;;29.10;60.30;;;;;;4969499;28;20037;-70
2022/01/09 11:09:08;;;;;;;2.00;1.10;;;29.10;60.40;;;;;;4969521;28;20034;-68
2022/01/09 11:11:40;;;;;;;1.25;0.90;;;29.10;60.40;;;;;;4968854;28;20029;-69
2022/01/09 11:14:12;;;;;;;2.38;1.10;;;29.10;60.50;;;;;;4962122;28;20433;-70
2022/01/09 11:16:47;;;;;;;2.47;1.45;;;29.10;60.80;;;;;;4965705;28;20090;-71
2022/01/09 11:19:17;;;;;;;1.55;1.45;;;29.10;60.70;;;;;;4958567;28;20480;-73
2022/01/09 11:21:54;;;;;;;15.90;2.60;;;29.10;60.60;;;;;;4961273;28;20517;-71
2022/01/09 11:24:44;;;;;;;12.68;2.33;;;29.10;60.60;;;;;;4961491;28;20066;-70
2022/01/09 11:27:25;;;;;;;14.70;10.27;;;29.00;60.50;;;;;;4959326;28;20019;-69
2022/01/09 11:30:17;;;;;;;28.67;19.20;;;29.00;60.50;;;;;;4964097;28;20530;-71
2022/01/09 11:33:06;;;;;;;23.98;7.95;;;29.10;60.60;;;;;;4960929;28;20038;-70
2022/01/09 11:35:59;;;;;;;25.73;10.07;;;29.00;60.50;;;;;;4965781;28;20042;-69
2022/01/09 11:38:50;;;;;;;17.58;2.55;;;29.10;60.60;;;;;;4961983;28;20026;-72
2022/01/09 11:41:25;;;;;;;10.18;1.45;;;29.00;60.50;;;;;;4958511;28;20039;-71
2022/01/09 11:44:01;;;;;;;6.40;1.52;;;29.00;60.60;;;;;;4952840;28;20509;-69
2022/01/09 11:46:30;;;;;;;2.63;1.35;;;29.00;60.60;;;;;;4960017;28;20026;-70
2022/01/09 11:48:58;;;;;;;8.48;1.92;;;29.00;60.80;;;;;;4962865;28;20122;-76
2022/01/09 11:51:38;;;;;;;6.10;2.25;;;29.00;60.90;;;;;;4959313;28;20027;-72
2022/01/09 11:54:12;;;;;;;7.70;1.67;;;28.90;61.10;;;;;;4950588;28;20034;-71
2022/01/09 11:56:56;;;;;;;2.80;1.25;;;28.90;61.50;;;;;;4957365;28;20479;-69
2022/01/09 11:59:48;;;;;;;3.08;1.10;;;28.80;61.60;;;;;;4951048;28;20870;-69
2022/01/09 12:02:18;;;;;;;9.38;1.90;;;28.70;61.50;;;;;;4966684;28;20034;-69
2022/01/09 12:04:45;;;;;;;7.18;1.80;;;28.60;61.70;;;;;;4969265;28;20122;-68
2022/01/09 12:07:41;;;;;;;2.05;1.48;;;28.50;61.80;;;;;;4971345;28;20494;-69
2022/01/09 12:10:30;;;;;;;22.02;3.72;;;28.50;62.00;;;;;;4964021;28;20023;-69
2022/01/09 12:12:57;;;;;;;34.88;4.43;;;28.50;62.10;;;;;;4966081;28;20030;-71
2022/01/09 12:15:37;;;;;;;10.98;2.90;;;28.50;62.20;;;;;;4969483;28;20023;-72
2022/01/09 12:18:06;;;;;;;6.47;1.98;;;28.50;62.30;;;;;;4969253;28;20035;-70
2022/01/09 12:20:40;;;;;;;8.43;2.30;;;28.40;62.20;;;;;;4951982;28;20538;-69
2022/01/09 12:23:20;;;;;;;6.13;2.60;;;28.40;62.10;;;;;;4944691;28;20126;-70
2022/01/09 12:25:51;;;;;;;2.65;1.33;;;28.40;62.30;;;;;;4946571;28;20027;-70
2022/01/09 12:28:25;;;;;;;5.63;2.13;;;28.40;62.40;;;;;;4943969;28;20070;-76
2022/01/09 12:31:01;;;;;;;6.07;2.13;;;28.50;62.40;;;;;;4944173;28;20363;-77
2022/01/09 12:33:28;;;;;;;50.17;16.17;;;28.50;62.30;;;;;;4945436;28;20043;-70
2022/01/09 12:36:13;;;;;;;31.35;16.05;;;28.50;62.30;;;;;;4944302;28;20106;-79
2022/01/09 12:38:43;;;;;;;;;;;28.50;62.40;;;;;;4943434;28;20030;-77
2022/01/09 12:41:15;;;;;;;15.63;5.50;;;28.50;63.00;;;;;;4950406;28;20285;-72
2022/01/09 12:43:42;;;;;;;6.97;2.60;;;28.50;62.30;;;;;;4950045;28;20498;-73
2022/01/09 12:46:40;;;;;;;2.60;1.50;;;28.50;62.30;;;;;;4949463;28;20117;-74
2022/01/09 12:49:12;;;;;;;19.80;2.55;;;28.50;62.20;;;;;;4944861;28;20122;-69
2022/01/09 12:51:47;;;;;;;48.97;6.40;;;28.50;62.20;;;;;;4945444;28;20463;-69